Airfield :
LOGIN :

Register | Disclaimer

   EN    FR    IT 

 










Legend :    VFR   Marginal VFR   IFR   Intensive IFR   Very Intensive IFR
Visi :
Ceiling :
>= 8 km
>= 3000ft
5 to 8 km
1000 to 3000 ft
1500m to 5 km
500 to 1000 ft
800 to 1500m
200 to 500 ft
< 800m
< 200 ft
Symbols :   Thunderstorms  Fog  Heavy snow  Heavy precipitations  Wind > 20 kt
SIGMETs :     Misc.  Thunderstorms  Icing  Turbulence  Mountain Waves  Volcanic Ashes






- Airport Elevation : 170 ft
- IATA code : KRP


EKKA - Karup

CURRENT METAR :
  • 120520Z AUTO 16006KT 7000 BKN005/// 05/04 Q0997

EXPIRED METARs :
  • 120450Z AUTO 17007KT 7000 OVC004/// 05/04 Q0997
  • 120427Z AUTO 17007KT 7000 OVC004/// 05/04 Q0997
  • 120415Z AUTO 17007KT 7000 OVC005/// 05/04 Q0997
  • 120350Z AUTO 17007KT 150V210 7000 OVC005/// 05/04 Q0997
  • 120346Z AUTO 17006KT 150V210 7000 OVC005/// 05/04 Q0997
  • 120332Z AUTO 18006KT 7000 OVC005/// 05/04 Q0997
  • 120320Z AUTO 18006KT 8000 BKN005/// 05/04 Q0998
  • 120250Z AUTO 18006KT 8000 OVC005/// 05/04 Q0998

TAF TAF EKKA
Valid from the 12 at 06:00 until the 13 at 06:00 UTC


120524Z 1206/1306 18008KT 9999 FEW020 BKN200
TEMPO 1206/1209 4000 BR BKN004
TEMPO 1209/1213 6000 BKN008
TEMPO 1213/1218 6000 -SHRA BKN012 SCT020CB
TEMPO 1220/1306 6000



MET'MAP, your aeronautical weather chart ! - Copyright ORBIFLY December 2007 - Disclaimer

ORBIFLY MET'MAP TEAM :

Programming & Development : Alexandra Zaïnal
Concept & original design : Baudouin d'Aumeries
Assistance for programming : Marc-Olivier Méhu
Technical & hardware support : Manuel Goepfert

Contact : metmap@orbifly.com




SOURCES & CREDITS :

   NOAA